Time;durP1;ratioP1;P1;durP2;ratioP2;P2;SDS_P1;SDS_P2;PMS_P1;PMS_P2;Temp;Humidity;BMP_temperature;BMP_pressure;BME280_temperature;BME280_humidity;BME280_pressure;Samples;Min_cycle;Max_cycle;Signal;HPM_P1;HPM_P2
2021/10/14 00:00:24;;;;;;;9.5;5;;;;;;;4.83;92.60254;946.9306;;;;
2021/10/14 00:02:50;;;;;;;7.5;5.2;;;;;;;4.85;92.62012;946.9221;;;;
2021/10/14 00:05:16;;;;;;;7.4;5;;;;;;;4.68;92.67285;947.005;;;;
2021/10/14 00:08:16;;;;;;;6.1;4.6;;;;;;;4.59;93.2832;946.9523;;;;
2021/10/14 00:10:41;;;;;;;5.3;4.1;;;;;;;4.6;93.35352;946.9436;;;;
2021/10/14 00:13:06;;;;;;;6.5;4.1;;;;;;;4.6;93.00391;946.9294;;;;
2021/10/14 00:15:32;;;;;;;5;4;;;;;;;4.56;92.79102;946.9519;;;;
2021/10/14 00:17:57;;;;;;;6.4;4.6;;;;;;;4.61;93.09375;946.918;;;;
2021/10/14 00:20:23;;;;;;;6.3;4.7;;;;;;;4.58;93.12402;946.8899;;;;
2021/10/14 00:22:49;;;;;;;8.2;4.8;;;;;;;4.57;93.00977;946.9169;;;;
2021/10/14 00:25:32;;;;;;;10.4;5.1;;;;;;;4.63;92.78516;946.9024;;;;
2021/10/14 00:27:57;;;;;;;11.8;5;;;;;;;4.54;93.47656;946.9835;;;;
2021/10/14 00:30:56;;;;;;;8.2;4.4;;;;;;;4.55;93.2627;946.9836;;;;
2021/10/14 00:33:21;;;;;;;9.3;4.5;;;;;;;4.56;93.15332;946.9354;;;;
2021/10/14 00:35:47;;;;;;;7.7;4;;;;;;;4.16;94.19238;946.873;;;;
2021/10/14 00:38:12;;;;;;;12.3;3.7;;;;;;;3.88;95.88184;946.8935;;;;
2021/10/14 00:40:37;;;;;;;12.8;3.8;;;;;;;3.87;96.4082;946.858;;;;
2021/10/14 00:43:03;;;;;;;9.8;4.3;;;;;;;4.09;95.95117;946.8851;;;;
2021/10/14 00:45:28;;;;;;;8.5;4.5;;;;;;;4.11;95.78809;946.8056;;;;
2021/10/14 00:47:54;;;;;;;6.7;4.2;;;;;;;4.03;95.96094;946.787;;;;
2021/10/14 00:50:18;;;;;;;9;4.6;;;;;;;3.94;96.69434;946.822;;;;
2021/10/14 00:52:57;;;;;;;6.9;4.8;;;;;;;4.02;97.11719;946.8489;;;;
2021/10/14 00:55:22;;;;;;;6.5;4.1;;;;;;;4.04;96.01953;946.8363;;;;
2021/10/14 00:57:49;;;;;;;6.8;4.6;;;;;;;3.84;96.39063;946.9221;;;;
2021/10/14 01:00:14;;;;;;;6.6;4.8;;;;;;;3.97;96.57715;946.8644;;;;
2021/10/14 01:02:40;;;;;;;6.6;4.7;;;;;;;4.12;96.08105;946.8535;;;;
2021/10/14 01:05:05;;;;;;;5.8;4.3;;;;;;;4.17;95.42969;946.8205;;;;
2021/10/14 01:07:31;;;;;;;6.2;4.1;;;;;;;4.07;94.58594;946.718;;;;
2021/10/14 01:09:56;;;;;;;5.6;3.7;;;;;;;3.9;95.08984;946.8162;;;;
2021/10/14 01:12:22;;;;;;;6.7;4;;;;;;;3.95;94.93262;946.7635;;;;
2021/10/14 01:14:47;;;;;;;4.9;3.9;;;;;;;3.81;95.46094;946.8376;;;;
2021/10/14 01:17:13;;;;;;;6.2;3.8;;;;;;;3.82;95.21777;946.8359;;;;
2021/10/14 01:19:39;;;;;;;6.1;3.7;;;;;;;3.86;95.31543;946.9164;;;;
2021/10/14 01:22:18;;;;;;;7.7;4.1;;;;;;;3.75;95.73926;946.9012;;;;
2021/10/14 01:24:46;;;;;;;4.7;3.7;;;;;;;3.81;95.92188;946.8304;;;;
2021/10/14 01:27:08;;;;;;;6.1;4;;;;;;;3.69;95.39844;946.851;;;;
2021/10/14 01:29:33;;;;;;;4.4;3.6;;;;;;;3.71;95.4502;946.8608;;;;
2021/10/14 01:35:52;;;;;;;4;3.3;;;;;;;3.49;94.89746;946.8013;;;;
2021/10/14 01:38:19;;;;;;;4.6;3.6;;;;;;;3.49;95.05273;946.8019;;;;
2021/10/14 01:40:43;;;;;;;3.7;3.3;;;;;;;3.44;94.97363;946.7519;;;;
2021/10/14 01:43:08;;;;;;;3.7;3.1;;;;;;;3.58;94.27539;946.8691;;;;
2021/10/14 01:45:33;;;;;;;3.2;2.9;;;;;;;3.68;93.93848;946.9088;;;;
2021/10/14 01:47:58;;;;;;;5.7;3.8;;;;;;;3.77;94.47266;946.9905;;;;
2021/10/14 01:50:23;;;;;;;4;3.2;;;;;;;3.87;93.55273;946.8951;;;;
2021/10/14 01:52:49;;;;;;;4;3.5;;;;;;;3.77;93.4541;946.968;;;;
2021/10/14 01:55:15;;;;;;;4.1;3.1;;;;;;;3.57;94.4082;946.9395;;;;
2021/10/14 01:57:40;;;;;;;3.3;3;;;;;;;3.4;94.88672;946.949;;;;
2021/10/14 02:00:10;;;;;;;3.6;3;;;;;;;3.52;95.36426;947.0112;;;;
2021/10/14 02:02:34;;;;;;;4.2;3.5;;;;;;;3.71;94.84277;946.9632;;;;
2021/10/14 02:04:59;;;;;;;4.7;3.6;;;;;;;3.64;94.48047;946.9672;;;;
2021/10/14 02:07:25;;;;;;;3.8;3.2;;;;;;;3.68;94.99414;946.9556;;;;
2021/10/14 02:09:50;;;;;;;4.1;3.3;;;;;;;3.81;94.65137;946.8197;;;;
2021/10/14 02:12:15;;;;;;;3.5;3.2;;;;;;;3.83;94.07324;946.9048;;;;
2021/10/14 02:14:41;;;;;;;3.6;3.2;;;;;;;3.84;93.85938;946.8557;;;;
2021/10/14 02:17:06;;;;;;;4.2;2.9;;;;;;;3.69;94.33301;946.9127;;;;
2021/10/14 02:19:32;;;;;;;4.9;3.4;;;;;;;3.78;93.94922;946.8413;;;;
2021/10/14 02:21:57;;;;;;;3.3;3;;;;;;;3.88;93.88281;946.7364;;;;
2021/10/14 02:24:30;;;;;;;3.2;2.9;;;;;;;3.98;93.55566;946.8658;;;;
2021/10/14 02:26:55;;;;;;;3;2.7;;;;;;;4.12;93.33789;946.8719;;;;
2021/10/14 02:29:20;;;;;;;3.3;3;;;;;;;4.21;93.08789;946.8867;;;;
2021/10/14 02:31:46;;;;;;;3.5;3;;;;;;;3.91;93.13379;946.9274;;;;
2021/10/14 02:34:11;;;;;;;4.4;3.2;;;;;;;3.96;93.66211;946.8552;;;;
2021/10/14 02:36:36;;;;;;;3.7;3.3;;;;;;;4;93.56934;946.782;;;;
2021/10/14 02:39:01;;;;;;;4;3.2;;;;;;;4.04;93.17383;946.6756;;;;
2021/10/14 02:41:28;;;;;;;3.3;3;;;;;;;4.08;92.93457;946.7751;;;;
2021/10/14 02:43:53;;;;;;;3.8;3.4;;;;;;;4.07;92.61816;946.7836;;;;
2021/10/14 02:46:18;;;;;;;4.3;3.4;;;;;;;3.89;92.64844;946.8567;;;;
2021/10/14 02:48:44;;;;;;;4.2;3.5;;;;;;;3.81;92.90039;946.8253;;;;
2021/10/14 02:51:09;;;;;;;3.9;3.3;;;;;;;3.87;92.99023;946.8352;;;;
2021/10/14 02:54:43;;;;;;;6.1;3.3;;;;;;;3.62;93.83594;946.7819;;;;
2021/10/14 02:57:09;;;;;;;4.6;3;;;;;;;3.59;94.23242;946.8028;;;;
2021/10/14 02:59:37;;;;;;;3.6;3;;;;;;;3.67;94.48633;946.8431;;;;
2021/10/14 03:02:01;;;;;;;3.6;3.3;;;;;;;3.79;93.97559;946.8729;;;;
2021/10/14 03:04:29;;;;;;;3.8;3.4;;;;;;;3.89;93.42188;946.9091;;;;
2021/10/14 03:06:55;;;;;;;3.4;2.8;;;;;;;3.94;93.17285;946.9951;;;;
2021/10/14 03:09:20;;;;;;;4.1;3.1;;;;;;;4.08;92.65527;946.9457;;;;
2021/10/14 03:11:45;;;;;;;6;3.5;;;;;;;4.09;92.45313;946.793;;;;
2021/10/14 03:14:11;;;;;;;5.7;3.7;;;;;;;4.06;92.27832;946.8247;;;;
2021/10/14 03:16:36;;;;;;;5.1;3.5;;;;;;;3.95;92.59473;946.8391;;;;
2021/10/14 03:19:03;;;;;;;3.8;3.2;;;;;;;3.76;93.00098;946.8699;;;;
2021/10/14 03:21:42;;;;;;;5.1;3.1;;;;;;;3.65;93.37012;946.8713;;;;
2021/10/14 03:24:09;;;;;;;3.9;2.9;;;;;;;3.67;93.98145;946.8652;;;;
2021/10/14 03:26:34;;;;;;;3.9;3;;;;;;;3.75;93.76465;946.9733;;;;
2021/10/14 03:29:01;;;;;;;4;3.3;;;;;;;3.85;93.37988;947.0067;;;;
2021/10/14 03:31:26;;;;;;;4.2;3.3;;;;;;;3.87;93.06738;946.9601;;;;
2021/10/14 03:33:53;;;;;;;3.8;3.1;;;;;;;3.91;93.19141;946.8212;;;;
2021/10/14 03:36:18;;;;;;;4.2;3.1;;;;;;;3.87;93.06934;946.747;;;;
2021/10/14 03:38:51;;;;;;;3.5;3.2;;;;;;;3.9;93.0752;946.7372;;;;
2021/10/14 03:41:18;;;;;;;5.5;3.5;;;;;;;3.76;93.0791;946.7988;;;;
2021/10/14 03:43:43;;;;;;;4.2;3.5;;;;;;;3.72;93.43066;946.7639;;;;
2021/10/14 03:46:09;;;;;;;4.7;3.3;;;;;;;3.78;93.22949;946.8539;;;;
2021/10/14 03:48:34;;;;;;;4.3;3.4;;;;;;;3.8;93.06445;946.918;;;;
2021/10/14 03:51:01;;;;;;;4.8;3;;;;;;;3.87;92.64063;946.9081;;;;
2021/10/14 03:53:26;;;;;;;4.2;3;;;;;;;3.9;92.69531;946.8909;;;;
2021/10/14 03:55:55;;;;;;;3.6;3.1;;;;;;;3.98;92.18457;946.9925;;;;
2021/10/14 03:58:20;;;;;;;4.6;3.5;;;;;;;4;92.11914;947.028;;;;
2021/10/14 04:02:37;;;;;;;6.1;3.2;;;;;;;3.95;92.35645;947.0012;;;;
2021/10/14 04:05:02;;;;;;;3.9;3.3;;;;;;;3.85;92.78223;947.0331;;;;
2021/10/14 04:07:27;;;;;;;3.1;2.8;;;;;;;3.83;93.08203;947.0401;;;;
2021/10/14 04:09:54;;;;;;;4.9;3.4;;;;;;;3.71;93.6748;947.0028;;;;
2021/10/14 04:12:19;;;;;;;3.8;3.2;;;;;;;3.63;93.98242;947.1532;;;;
2021/10/14 04:14:46;;;;;;;4.6;3;;;;;;;3.54;94.26758;947.1814;;;;
2021/10/14 04:17:11;;;;;;;4.6;3.2;;;;;;;3.51;94.38477;947.147;;;;
2021/10/14 04:19:38;;;;;;;4.7;3.5;;;;;;;3.5;94.25781;947.0826;;;;
2021/10/14 04:22:03;;;;;;;4.9;4.1;;;;;;;3.59;93.97656;947.1312;;;;
2021/10/14 04:24:30;;;;;;;4.9;3.9;;;;;;;3.7;93.84082;946.9996;;;;
2021/10/14 04:26:55;;;;;;;5;4.2;;;;;;;3.74;93.90527;947.0923;;;;
2021/10/14 04:29:21;;;;;;;6.7;4.4;;;;;;;3.82;93.66406;947.1319;;;;
2021/10/14 04:31:47;;;;;;;5.3;4.3;;;;;;;3.83;93.84668;947.092;;;;
2021/10/14 04:34:13;;;;;;;12.5;7.7;;;;;;;3.86;93.43848;947.0034;;;;
2021/10/14 04:36:39;;;;;;;5.9;4.7;;;;;;;3.87;93.81152;946.9124;;;;
2021/10/14 04:39:05;;;;;;;5.3;4.2;;;;;;;3.85;93.64746;947.0552;;;;
2021/10/14 04:41:30;;;;;;;7.1;4.7;;;;;;;3.73;93.18555;946.9783;;;;
2021/10/14 04:43:57;;;;;;;6;4.7;;;;;;;3.44;94.25488;947.0708;;;;
2021/10/14 04:46:22;;;;;;;6.6;4.9;;;;;;;3.55;94.52832;947.044;;;;
2021/10/14 04:49:48;;;;;;;7.7;4.8;;;;;;;3.55;94.52832;946.9356;;;;
2021/10/14 04:52:13;;;;;;;5.3;4;;;;;;;3.65;94.15723;946.9958;;;;
2021/10/14 04:54:38;;;;;;;6.1;4;;;;;;;3.62;93.8457;947.1304;;;;
2021/10/14 04:57:03;;;;;;;5.6;3.9;;;;;;;3.62;93.54395;946.8748;;;;
2021/10/14 04:59:29;;;;;;;9.5;4.2;;;;;;;3.71;93.44922;946.9269;;;;
2021/10/14 05:01:54;;;;;;;4.4;4;;;;;;;3.73;92.99316;946.8923;;;;
2021/10/14 05:04:20;;;;;;;4.5;3.7;;;;;;;3.71;92.06738;946.9017;;;;
2021/10/14 05:06:45;;;;;;;4.6;3.8;;;;;;;3.67;92.27344;947.0481;;;;
2021/10/14 05:09:11;;;;;;;4.8;3.9;;;;;;;3.7;92.52832;947.1298;;;;
2021/10/14 05:11:36;;;;;;;5.8;4.3;;;;;;;3.75;92.59375;947.1913;;;;
2021/10/14 05:14:02;;;;;;;4.8;3.6;;;;;;;3.67;92.72266;947.2148;;;;
2021/10/14 05:16:32;;;;;;;6.6;4.1;;;;;;;3.6;93.14648;947.2313;;;;
2021/10/14 05:18:52;;;;;;;6.3;3.6;;;;;;;3.56;92.84473;947.2385;;;;
2021/10/14 05:22:14;;;;;;;5.8;3.2;;;;;;;3.52;92.98145;947.1993;;;;
2021/10/14 05:24:40;;;;;;;5.1;3.9;;;;;;;3.38;93.60254;947.1172;;;;
2021/10/14 05:27:06;;;;;;;5.3;3.7;;;;;;;3.41;93.66504;947.0837;;;;
2021/10/14 05:29:32;;;;;;;4.7;3.7;;;;;;;3.35;93.76563;947.0577;;;;
2021/10/14 05:31:57;;;;;;;4.6;4;;;;;;;3.37;93.57813;947.0578;;;;
2021/10/14 05:34:23;;;;;;;5.4;3.9;;;;;;;3.35;93.25977;947.0986;;;;
2021/10/14 05:36:50;;;;;;;9.2;6.2;;;;;;;3.2;93.2373;947.0399;;;;
2021/10/14 05:39:15;;;;;;;5.8;4.5;;;;;;;2.87;95.11816;947.0317;;;;
2021/10/14 05:41:42;;;;;;;6.5;4.4;;;;;;;3.06;95.31543;946.9328;;;;
2021/10/14 05:44:07;;;;;;;7.3;5.2;;;;;;;3.23;94.74805;946.975;;;;
2021/10/14 05:46:34;;;;;;;10.7;7.6;;;;;;;3.34;94.33594;947.0656;;;;
2021/10/14 05:48:59;;;;;;;11.6;8.1;;;;;;;3.43;94.11816;947.1609;;;;
2021/10/14 05:51:26;;;;;;;9;7.4;;;;;;;3.49;94.06641;947.3161;;;;
2021/10/14 05:53:51;;;;;;;10;7.5;;;;;;;3.62;93.66602;947.4233;;;;
2021/10/14 05:56:19;;;;;;;8.6;5.3;;;;;;;3.75;92.9541;947.4891;;;;
2021/10/14 05:58:44;;;;;;;6.9;4.9;;;;;;;3.66;93.16992;947.5059;;;;
2021/10/14 06:01:11;;;;;;;6.2;4.3;;;;;;;3.63;93.00488;947.4358;;;;
2021/10/14 06:03:36;;;;;;;6.9;4.5;;;;;;;3.7;92.50391;947.4698;;;;
2021/10/14 06:06:03;;;;;;;6.4;4.8;;;;;;;3.72;91.85547;947.452;;;;
2021/10/14 06:08:28;;;;;;;9.3;5.9;;;;;;;3.54;92.33398;947.4308;;;;
2021/10/14 06:10:55;;;;;;;6.3;3.8;;;;;;;3.58;92.51172;947.4817;;;;
2021/10/14 06:13:20;;;;;;;5.9;4.3;;;;;;;3.71;91.95508;947.5381;;;;
2021/10/14 06:15:45;;;;;;;5.5;4.1;;;;;;;3.82;92.43945;947.5488;;;;
2021/10/14 06:18:10;;;;;;;8.4;4.2;;;;;;;3.96;91.80762;947.5692;;;;
2021/10/14 06:20:36;;;;;;;6.8;4.4;;;;;;;4.03;91.12402;947.5331;;;;
2021/10/14 06:23:02;;;;;;;5.8;4;;;;;;;3.95;91.17773;947.5278;;;;
2021/10/14 06:25:26;;;;;;;6.7;4.3;;;;;;;3.9;91.92871;947.5707;;;;
2021/10/14 06:27:51;;;;;;;5;4.1;;;;;;;3.68;92.94922;947.524;;;;
2021/10/14 06:30:16;;;;;;;7.6;4.1;;;;;;;3.67;94.61035;947.6624;;;;
2021/10/14 06:33:23;;;;;;;8.5;5.6;;;;;;;3.89;93.93848;947.6625;;;;
2021/10/14 06:35:48;;;;;;;10.4;7.4;;;;;;;4.1;92.64648;947.6075;;;;
2021/10/14 06:38:13;;;;;;;9.8;6.2;;;;;;;4.13;91.67578;947.6501;;;;
2021/10/14 06:40:38;;;;;;;8.8;5.7;;;;;;;4.11;91.3457;947.624;;;;
2021/10/14 06:43:04;;;;;;;9.6;5.7;;;;;;;4.01;92.41504;947.5491;;;;
2021/10/14 06:45:29;;;;;;;8.7;5.9;;;;;;;3.94;94.38965;947.5453;;;;
2021/10/14 06:47:55;;;;;;;7.6;5.9;;;;;;;4.17;94.50684;947.5684;;;;
2021/10/14 06:50:20;;;;;;;8.6;5.6;;;;;;;4.44;92.20508;947.4881;;;;
2021/10/14 06:52:46;;;;;;;6.3;4.5;;;;;;;4.76;91.05664;947.4711;;;;
2021/10/14 06:55:11;;;;;;;6.3;4.4;;;;;;;4.99;89.3125;947.5139;;;;
2021/10/14 06:57:38;;;;;;;6.1;3.5;;;;;;;5.01;88.13281;947.5294;;;;
2021/10/14 07:00:03;;;;;;;4.3;3;;;;;;;5.29;88.83594;947.5629;;;;
2021/10/14 07:02:29;;;;;;;3.7;3;;;;;;;5.09;87.72168;947.5134;;;;
2021/10/14 07:04:54;;;;;;;4.4;3;;;;;;;5.05;87.52246;947.5574;;;;
2021/10/14 07:07:20;;;;;;;5.3;3.3;;;;;;;5.46;86.38867;947.6273;;;;
2021/10/14 07:09:45;;;;;;;7.1;3.8;;;;;;;5.51;87.01855;947.5569;;;;
2021/10/14 07:12:12;;;;;;;3.8;3.1;;;;;;;5.32;85.6582;947.6342;;;;
2021/10/14 07:14:37;;;;;;;4.9;2.9;;;;;;;5.31;85.43262;947.6425;;;;
2021/10/14 07:17:03;;;;;;;5;2.8;;;;;;;5.48;85.62305;947.6075;;;;
2021/10/14 07:19:28;;;;;;;5;2.6;;;;;;;5.77;84.69922;947.5997;;;;
2021/10/14 07:21:53;;;;;;;3.1;1.9;;;;;;;6.03;82.73047;947.603;;;;
2021/10/14 07:24:19;;;;;;;4.5;2.8;;;;;;;6.26;84.21875;947.5761;;;;
2021/10/14 07:26:43;;;;;;;4.7;2.9;;;;;;;6.15;83.45313;947.5604;;;;
2021/10/14 07:29:08;;;;;;;5.9;3.1;;;;;;;6.06;83.40039;947.5281;;;;
2021/10/14 07:31:33;;;;;;;3.9;3;;;;;;;6.43;82.8291;947.5208;;;;
2021/10/14 07:33:58;;;;;;;4.1;2.7;;;;;;;6.53;82.10254;947.5366;;;;
2021/10/14 07:36:24;;;;;;;3.7;2.5;;;;;;;6.35;80.15625;947.5291;;;;
2021/10/14 07:38:50;;;;;;;2.9;2.6;;;;;;;6.64;81.18359;947.5294;;;;
2021/10/14 07:41:15;;;;;;;6.5;2.7;;;;;;;6.71;80.82422;947.5145;;;;
2021/10/14 07:43:41;;;;;;;3.8;2.1;;;;;;;7.05;80.20703;947.5566;;;;
2021/10/14 07:46:08;;;;;;;3.1;2;;;;;;;7.2;77.03027;947.5861;;;;
2021/10/14 07:48:33;;;;;;;3.3;2.5;;;;;;;6.97;77.21387;947.5391;;;;
2021/10/14 07:50:58;;;;;;;2.8;2.2;;;;;;;7.18;76.66406;947.6163;;;;
2021/10/14 07:53:24;;;;;;;2.3;2.1;;;;;;;7.83;76.28125;947.5803;;;;
2021/10/14 07:55:49;;;;;;;5.3;2.3;;;;;;;8.01;71.81836;947.5282;;;;
2021/10/14 07:58:16;;;;;;;4.2;1.6;;;;;;;7.58;72.81152;947.5266;;;;
2021/10/14 08:00:41;;;;;;;1.4;1.3;;;;;;;7.26;73.38086;947.553;;;;
2021/10/14 08:03:06;;;;;;;1.8;1.6;;;;;;;7.73;73.43848;947.5441;;;;
2021/10/14 08:05:32;;;;;;;2.4;1.5;;;;;;;7.81;71.60156;947.4847;;;;
2021/10/14 08:07:58;;;;;;;1.7;1.4;;;;;;;8.96;66.42383;947.3726;;;;
2021/10/14 08:10:23;;;;;;;1.5;1.3;;;;;;;9.32;65.625;947.5825;;;;
2021/10/14 08:12:48;;;;;;;1.9;1.1;;;;;;;9.07;64.92773;947.5344;;;;
2021/10/14 08:15:14;;;;;;;1.9;1.2;;;;;;;8.76;66.65527;947.5887;;;;
2021/10/14 08:17:40;;;;;;;1.7;1.4;;;;;;;9.1;68.3457;947.5955;;;;
2021/10/14 08:20:05;;;;;;;2.4;1.4;;;;;;;9.22;65.72559;947.6044;;;;
2021/10/14 08:22:31;;;;;;;2.2;1.3;;;;;;;9.45;65.89648;947.5429;;;;
2021/10/14 08:24:59;;;;;;;1.5;1.2;;;;;;;8.99;66.86133;947.5927;;;;
2021/10/14 08:27:22;;;;;;;2.3;1.4;;;;;;;8.4;69.13379;947.6069;;;;
2021/10/14 08:29:48;;;;;;;1.6;1.5;;;;;;;8.39;69.14355;947.5596;;;;
2021/10/14 08:32:14;;;;;;;3.9;1.5;;;;;;;7.96;70.56055;947.5399;;;;
2021/10/14 08:34:39;;;;;;;2.3;1.5;;;;;;;8.08;70.05859;947.4697;;;;
2021/10/14 08:37:06;;;;;;;2.6;1.7;;;;;;;7.95;71.72754;947.4069;;;;
2021/10/14 08:39:31;;;;;;;1.8;1.7;;;;;;;8.62;70.22559;947.389;;;;
2021/10/14 08:41:57;;;;;;;2.6;1.5;;;;;;;9.12;66.4502;947.3572;;;;
2021/10/14 08:44:25;;;;;;;1.9;1.6;;;;;;;9.82;66.69336;947.382;;;;
2021/10/14 08:46:47;;;;;;;3.1;1.5;;;;;;;9.8;62.71191;947.3364;;;;
2021/10/14 08:49:12;;;;;;;1.5;0.9;;;;;;;9.29;64.01758;947.2933;;;;
2021/10/14 08:51:37;;;;;;;2.2;1.2;;;;;;;9.76;62.10254;947.286;;;;
2021/10/14 08:54:02;;;;;;;5.4;2.5;;;;;;;10.48;61.58984;947.2629;;;;
2021/10/14 08:56:28;;;;;;;2.3;1.6;;;;;;;10.83;61.30859;947.2216;;;;
2021/10/14 08:58:53;;;;;;;1.5;1.3;;;;;;;10.76;57.59766;947.3025;;;;
2021/10/14 09:01:18;;;;;;;2.5;1.7;;;;;;;10.07;61.89746;947.2662;;;;
2021/10/14 09:03:44;;;;;;;2.7;1.7;;;;;;;10.83;60.71484;947.2932;;;;
2021/10/14 09:06:08;;;;;;;2.5;1.4;;;;;;;10.34;59.33398;947.2497;;;;
2021/10/14 09:08:33;;;;;;;1.9;1.3;;;;;;;10.04;62.39453;947.2011;;;;
2021/10/14 09:10:58;;;;;;;1.9;1.5;;;;;;;10.01;62.07031;947.0658;;;;
2021/10/14 09:13:23;;;;;;;2;1.4;;;;;;;10.89;61.39746;947.1194;;;;
2021/10/14 09:15:48;;;;;;;1.7;1.4;;;;;;;10.58;59.53809;947.0703;;;;
2021/10/14 09:18:14;;;;;;;4.4;2.6;;;;;;;9.73;61.10742;946.9639;;;;
2021/10/14 09:20:40;;;;;;;2.2;1.5;;;;;;;10.13;61.57422;946.8881;;;;
2021/10/14 09:23:05;;;;;;;1.8;1;;;;;;;10.74;61.65039;946.9125;;;;
2021/10/14 09:25:32;;;;;;;2.7;1.2;;;;;;;10.71;59.31445;946.8455;;;;
2021/10/14 09:27:57;;;;;;;1.9;1.1;;;;;;;11.32;59.50195;946.8181;;;;
2021/10/14 09:30:22;;;;;;;1.9;1;;;;;;;11.37;57.61035;946.8088;;;;
2021/10/14 09:32:47;;;;;;;1.8;1.5;;;;;;;10.7;59.05078;946.7745;;;;
2021/10/14 09:35:12;;;;;;;1.1;1;;;;;;;11.34;58.04004;946.8359;;;;
2021/10/14 09:37:39;;;;;;;1.4;1;;;;;;;11.28;54.13184;946.7966;;;;
2021/10/14 09:40:04;;;;;;;2.5;1.1;;;;;;;11.5;60.23633;946.7892;;;;
2021/10/14 09:42:29;;;;;;;1;0.9;;;;;;;11.55;56.29492;946.8309;;;;
2021/10/14 09:44:55;;;;;;;1.5;0.7;;;;;;;11.32;52.1123;946.7679;;;;
2021/10/14 09:47:19;;;;;;;1.6;1.2;;;;;;;11.11;55.32324;946.7751;;;;
2021/10/14 09:49:44;;;;;;;1.5;1.2;;;;;;;11.04;54.94824;946.7205;;;;
2021/10/14 09:52:09;;;;;;;1.5;0.8;;;;;;;11.33;56.20898;946.7457;;;;
2021/10/14 09:54:35;;;;;;;1.9;1.1;;;;;;;11.47;54.99219;946.7935;;;;
2021/10/14 09:57:00;;;;;;;1.2;1.1;;;;;;;11.49;53.25391;946.7747;;;;
2021/10/14 09:59:25;;;;;;;0.9;0.8;;;;;;;11.37;48.87012;946.7123;;;;
2021/10/14 10:01:56;;;;;;;0.8;0.8;;;;;;;11.16;49.77246;946.6583;;;;
2021/10/14 10:04:19;;;;;;;2.4;1.2;;;;;;;11.22;53.49609;946.6526;;;;
2021/10/14 10:06:45;;;;;;;0.6;0.6;;;;;;;11.16;47.38281;946.6344;;;;
2021/10/14 10:09:11;;;;;;;1.1;1;;;;;;;11.54;50.75488;946.554;;;;
2021/10/14 10:11:35;;;;;;;0.8;0.7;;;;;;;11.93;46.73438;946.5508;;;;
2021/10/14 10:14:00;;;;;;;1.1;0.8;;;;;;;11.93;47.78809;946.495;;;;
2021/10/14 10:16:25;;;;;;;1.1;1;;;;;;;12.26;51.75684;946.5889;;;;
2021/10/14 10:18:51;;;;;;;1.7;0.9;;;;;;;12.23;49.31055;946.5229;;;;
2021/10/14 10:21:16;;;;;;;1.5;0.8;;;;;;;12.19;48.87012;946.5522;;;;
2021/10/14 10:23:41;;;;;;;1.4;0.8;;;;;;;12.14;47.47852;946.514;;;;
2021/10/14 10:26:06;;;;;;;0.9;0.8;;;;;;;12.31;48.64355;946.5345;;;;
2021/10/14 10:28:32;;;;;;;1.3;1.1;;;;;;;12.44;49.23145;946.5009;;;;
2021/10/14 10:30:57;;;;;;;1.1;0.9;;;;;;;12.84;47.97949;946.4235;;;;
2021/10/14 10:33:22;;;;;;;1.6;0.9;;;;;;;13.01;45.75879;946.4969;;;;
2021/10/14 10:35:48;;;;;;;0.9;0.8;;;;;;;13.28;45.23633;946.438;;;;
2021/10/14 10:38:13;;;;;;;0.7;0.7;;;;;;;13.27;44.82031;946.4459;;;;
2021/10/14 10:40:40;;;;;;;1.2;1.1;;;;;;;13.46;46.93262;946.4925;;;;
2021/10/14 10:43:03;;;;;;;0.7;0.7;;;;;;;13.7;43.93359;946.4417;;;;
2021/10/14 10:45:28;;;;;;;1.7;1.1;;;;;;;14.19;46.23926;946.4286;;;;
2021/10/14 10:47:53;;;;;;;0.8;0.8;;;;;;;14.27;47.38965;946.3279;;;;
2021/10/14 10:50:18;;;;;;;2.6;1;;;;;;;14.24;42.48047;946.3748;;;;
2021/10/14 10:52:44;;;;;;;0.6;0.6;;;;;;;14.17;40.86133;946.3708;;;;
2021/10/14 10:55:08;;;;;;;0.8;0.6;;;;;;;14.25;41.72168;946.3597;;;;
2021/10/14 10:57:34;;;;;;;0.5;0.5;;;;;;;13.57;43.55273;946.3072;;;;
2021/10/14 10:59:59;;;;;;;1.1;0.9;;;;;;;14.16;44.28027;946.2714;;;;
2021/10/14 11:02:24;;;;;;;1.2;0.8;;;;;;;14.26;44.83203;946.2742;;;;
2021/10/14 11:04:49;;;;;;;0.9;0.9;;;;;;;14.54;46.05762;946.2367;;;;
2021/10/14 11:07:15;;;;;;;0.9;0.8;;;;;;;14.27;42.97754;946.1685;;;;
2021/10/14 11:09:40;;;;;;;0.8;0.8;;;;;;;14.76;45.03223;946.1719;;;;
2021/10/14 11:12:06;;;;;;;1;0.9;;;;;;;15.23;41.86133;946.1311;;;;
2021/10/14 11:14:31;;;;;;;1.2;1.1;;;;;;;14.96;42.45801;946.0698;;;;
2021/10/14 11:16:57;;;;;;;1.5;0.7;;;;;;;14.2;38.9873;945.9745;;;;
2021/10/14 11:19:22;;;;;;;1.3;0.5;;;;;;;14.04;41.50488;946.002;;;;
2021/10/14 11:21:47;;;;;;;1.5;0.8;;;;;;;14.7;41.06152;945.9303;;;;
2021/10/14 11:24:15;;;;;;;8;1.1;;;;;;;15.76;41.1377;945.8911;;;;
2021/10/14 11:26:41;;;;;;;0.6;0.6;;;;;;;16.29;37.53125;945.8312;;;;
2021/10/14 11:29:04;;;;;;;0.6;0.6;;;;;;;16.87;37.09473;945.7745;;;;
2021/10/14 11:31:31;;;;;;;0.6;0.6;;;;;;;16.98;37.24316;945.7203;;;;
2021/10/14 11:33:56;;;;;;;0.7;0.7;;;;;;;16.26;38.44238;945.7357;;;;
2021/10/14 11:36:21;;;;;;;0.7;0.7;;;;;;;16.87;39.93262;945.637;;;;
2021/10/14 11:38:46;;;;;;;0.7;0.7;;;;;;;17.65;36.93945;945.5863;;;;
2021/10/14 11:41:11;;;;;;;0.6;0.6;;;;;;;18.52;36.17578;945.6448;;;;
2021/10/14 11:43:37;;;;;;;0.7;0.6;;;;;;;19.4;33.44043;945.6348;;;;
2021/10/14 11:46:03;;;;;;;2.1;0.8;;;;;;;18.74;33.82031;945.6755;;;;
2021/10/14 11:48:28;;;;;;;0.6;0.6;;;;;;;19.16;33.93457;945.6093;;;;
2021/10/14 11:50:53;;;;;;;1.5;0.7;;;;;;;19.12;32.67383;945.6188;;;;
2021/10/14 11:53:18;;;;;;;1.5;0.8;;;;;;;19.83;32.60938;945.5567;;;;
2021/10/14 11:55:44;;;;;;;1.9;0.6;;;;;;;18.3;34.39063;945.6262;;;;
2021/10/14 11:58:09;;;;;;;1.4;0.6;;;;;;;17.68;35.78125;945.5172;;;;
2021/10/14 12:00:34;;;;;;;0.6;0.6;;;;;;;18.1;34.08496;945.5187;;;;
2021/10/14 12:02:59;;;;;;;0.9;0.7;;;;;;;17.05;38.15234;945.4927;;;;
2021/10/14 12:05:24;;;;;;;0.7;0.6;;;;;;;17.02;35.76367;945.4959;;;;
2021/10/14 12:07:49;;;;;;;0.9;0.6;;;;;;;17.31;35.18359;945.5087;;;;
2021/10/14 12:10:14;;;;;;;0.6;0.6;;;;;;;17.67;34.3877;945.4775;;;;
2021/10/14 12:12:40;;;;;;;1;0.7;;;;;;;17.79;36.70801;945.4922;;;;
2021/10/14 12:15:05;;;;;;;1.1;0.7;;;;;;;17.79;37.72949;945.4922;;;;
2021/10/14 12:17:32;;;;;;;1;0.7;;;;;;;17.57;38.7666;945.4512;;;;
2021/10/14 12:19:56;;;;;;;0.7;0.7;;;;;;;17.55;37.16309;945.3716;;;;
2021/10/14 12:22:22;;;;;;;0.7;0.7;;;;;;;17.57;36.75977;945.3538;;;;
2021/10/14 12:24:47;;;;;;;0.6;0.6;;;;;;;18.64;35.06836;945.3723;;;;
2021/10/14 12:27:12;;;;;;;1.3;0.9;;;;;;;18.79;34.30078;945.3094;;;;
2021/10/14 12:29:37;;;;;;;0.9;0.7;;;;;;;18.87;35.15723;945.2725;;;;
2021/10/14 12:32:03;;;;;;;0.8;0.8;;;;;;;18.71;34.1084;945.3159;;;;
2021/10/14 12:34:28;;;;;;;0.8;0.6;;;;;;;17.64;36.74219;945.2665;;;;
2021/10/14 12:36:53;;;;;;;0.6;0.6;;;;;;;18.44;35.25098;945.2383;;;;
2021/10/14 12:39:20;;;;;;;0.7;0.7;;;;;;;19.68;32.02734;945.1989;;;;
2021/10/14 12:41:44;;;;;;;0.7;0.7;;;;;;;21.89;28.5791;945.127;;;;
2021/10/14 12:44:10;;;;;;;1.3;0.7;;;;;;;22.74;28.89063;945.1666;;;;
2021/10/14 12:46:42;;;;;;;0.6;0.5;;;;;;;23.26;28.65527;945.1362;;;;
2021/10/14 12:49:11;;;;;;;0.7;0.7;;;;;;;23.83;26.76172;945.106;;;;
2021/10/14 12:51:26;;;;;;;0.5;0.5;;;;;;;24.46;26.61133;945.0632;;;;
2021/10/14 12:53:51;;;;;;;1;0.7;;;;;;;24.72;27.89941;945.0344;;;;
2021/10/14 12:56:16;;;;;;;0.7;0.7;;;;;;;24.99;26.38281;945.0553;;;;
2021/10/14 12:58:42;;;;;;;3.8;1.3;;;;;;;25.13;24.58496;945.0084;;;;
2021/10/14 13:01:07;;;;;;;0.7;0.7;;;;;;;26.83;23.58887;945.003;;;;
2021/10/14 13:03:33;;;;;;;410.4;40.8;;;;;;;25.12;25.74121;945.0325;;;;
2021/10/14 13:05:58;;;;;;;1.6;0.6;;;;;;;25.01;24.6377;945.0264;;;;
2021/10/14 13:08:25;;;;;;;0.6;0.6;;;;;;;24.78;26.13477;944.9718;;;;
2021/10/14 13:10:50;;;;;;;0.6;0.6;;;;;;;25.86;25.60742;944.9692;;;;
2021/10/14 13:13:15;;;;;;;0.6;0.6;;;;;;;26.19;24.98633;944.9264;;;;
2021/10/14 13:15:40;;;;;;;0.7;0.6;;;;;;;26.47;24.76563;944.9392;;;;
2021/10/14 13:18:06;;;;;;;0.7;0.7;;;;;;;25;26.41895;944.9265;;;;
2021/10/14 13:20:33;;;;;;;0.8;0.7;;;;;;;26.6;24.64258;944.8898;;;;
2021/10/14 13:22:59;;;;;;;1.1;0.7;;;;;;;27.13;23.86621;944.9283;;;;
2021/10/14 13:25:24;;;;;;;0.7;0.6;;;;;;;27.77;22.27246;944.875;;;;
2021/10/14 13:27:50;;;;;;;0.7;0.7;;;;;;;28.86;22.77832;944.8668;;;;
2021/10/14 13:30:14;;;;;;;2.3;2;;;;;;;29.52;21.27441;944.8158;;;;
2021/10/14 13:32:43;;;;;;;0.7;0.7;;;;;;;29.7;20.62793;944.7618;;;;
2021/10/14 13:35:08;;;;;;;0.8;0.7;;;;;;;28.64;22.06641;944.7347;;;;
2021/10/14 13:37:34;;;;;;;0.7;0.7;;;;;;;28.88;22.29199;944.6936;;;;
2021/10/14 13:40:00;;;;;;;1.2;0.7;;;;;;;27.76;21.73828;944.715;;;;
2021/10/14 13:42:31;;;;;;;1.7;0.7;;;;;;;27.37;23.84277;944.7494;;;;
2021/10/14 13:44:49;;;;;;;1.4;0.6;;;;;;;27.81;22.82129;944.6638;;;;
2021/10/14 13:47:14;;;;;;;0.7;0.7;;;;;;;27.19;22.62402;944.6861;;;;
2021/10/14 13:49:39;;;;;;;0.7;0.6;;;;;;;26.14;24.66406;944.6908;;;;
2021/10/14 13:52:04;;;;;;;0.8;0.7;;;;;;;27.12;22.99902;944.6389;;;;
2021/10/14 13:54:31;;;;;;;0.5;0.5;;;;;;;26.35;23.39844;944.6181;;;;
2021/10/14 13:56:59;;;;;;;0.8;0.7;;;;;;;26.76;24.11816;944.6031;;;;
2021/10/14 13:59:21;;;;;;;1.1;0.6;;;;;;;26.55;23.51465;944.6641;;;;
2021/10/14 14:01:48;;;;;;;0.6;0.6;;;;;;;25.57;25.02246;944.5728;;;;
2021/10/14 14:04:13;;;;;;;0.7;0.7;;;;;;;23.89;27.24707;944.6331;;;;
2021/10/14 14:06:40;;;;;;;1.1;0.7;;;;;;;22.74;28.63281;944.6614;;;;
2021/10/14 14:09:06;;;;;;;0.7;0.6;;;;;;;22.23;29.84277;944.6468;;;;
2021/10/14 14:11:28;;;;;;;62.1;10.5;;;;;;;20.91;32.05762;944.6158;;;;
2021/10/14 14:13:53;;;;;;;1.6;0.5;;;;;;;20.67;32.89355;944.5183;;;;
2021/10/14 14:16:19;;;;;;;0.7;0.7;;;;;;;19.91;34.30664;944.6542;;;;
2021/10/14 14:18:44;;;;;;;0.7;0.6;;;;;;;20.89;33.70605;944.6316;;;;
2021/10/14 14:21:10;;;;;;;0.9;0.7;;;;;;;21.72;31.99902;944.5875;;;;
2021/10/14 14:23:36;;;;;;;1.6;0.8;;;;;;;22.38;31.40234;944.6138;;;;
2021/10/14 14:26:01;;;;;;;2.4;0.7;;;;;;;22.09;31.28809;944.5542;;;;
2021/10/14 14:28:27;;;;;;;1;0.8;;;;;;;21.77;31.55762;944.5435;;;;
2021/10/14 14:30:52;;;;;;;0.5;0.5;;;;;;;22;31.91406;944.5648;;;;
2021/10/14 14:33:18;;;;;;;0.6;0.6;;;;;;;23.19;30.15527;944.6116;;;;